createdAt,value
2022-10-31T00:01:20.273Z,100210.63
2022-10-31T00:04:21.699Z,100206.47
2022-10-31T00:07:23.278Z,100211.16
2022-10-31T00:10:24.826Z,100208.06
2022-10-31T00:13:26.384Z,100211.50
2022-10-31T00:16:28.776Z,100207.69
2022-10-31T00:19:30.236Z,100210.97
2022-10-31T00:22:31.602Z,100210.66
2022-10-31T00:25:38.713Z,100207.22
2022-10-31T00:28:40.120Z,100204.28
2022-10-31T00:31:41.574Z,100200.78
2022-10-31T00:34:43.038Z,100205.59
2022-10-31T00:37:44.883Z,100203.63
2022-10-31T00:40:46.625Z,100208.25
2022-10-31T00:43:48.127Z,100206.53
2022-10-31T00:46:49.642Z,100205.88
2022-10-31T00:49:56.294Z,100208.50
2022-10-31T00:52:58.887Z,100208.00
2022-10-31T00:56:00.666Z,100207.06
2022-10-31T00:59:02.124Z,100207.25
2022-10-31T01:02:03.706Z,100214.81
2022-10-31T01:05:05.727Z,100213.25
2022-10-31T01:08:07.142Z,100211.47
2022-10-31T01:11:15.093Z,100213.09
2022-10-31T01:14:16.514Z,100214.28
2022-10-31T01:17:18.044Z,100215.88
2022-10-31T01:20:21.874Z,100210.09
2022-10-31T01:23:23.292Z,100211.75
2022-10-31T01:26:27.239Z,100214.38
2022-10-31T01:29:28.900Z,100212.69
2022-10-31T01:32:30.357Z,100210.72
2022-10-31T01:35:33.499Z,100209.69
2022-10-31T01:38:34.970Z,100204.97
2022-10-31T01:41:39.856Z,100209.03
2022-10-31T01:44:43.323Z,100206.78
2022-10-31T01:47:48.097Z,100206.63
2022-10-31T01:50:54.004Z,100203.66
2022-10-31T01:54:00.718Z,100205.09
2022-10-31T01:57:03.667Z,100203.13
2022-10-31T02:00:09.661Z,100201.13
2022-10-31T02:03:19.801Z,100194.41
2022-10-31T02:06:38.459Z,100190.63
2022-10-31T02:09:41.545Z,100195.25
2022-10-31T02:12:43.914Z,100191.94
2022-10-31T02:15:48.108Z,100190.28
2022-10-31T02:18:49.864Z,100187.31
2022-10-31T02:22:03.076Z,100190.94
2022-10-31T02:25:12.264Z,100188.56
2022-10-31T02:31:42.951Z,100197.22
2022-10-31T02:34:59.245Z,100188.72
2022-10-31T02:38:10.329Z,100179.53
2022-10-31T02:41:22.707Z,100176.03
2022-10-31T02:44:40.851Z,100179.44
2022-10-31T02:47:43.598Z,100169.44
2022-10-31T02:50:56.004Z,100174.75
2022-10-31T02:53:57.525Z,100172.13
2022-10-31T02:57:04.918Z,100169.28
2022-10-31T03:00:09.184Z,100173.41
2022-10-31T03:03:20.484Z,100169.28
2022-10-31T03:06:28.887Z,100164.47
2022-10-31T03:09:46.562Z,100166.28
2022-10-31T03:12:59.298Z,100163.75
2022-10-31T03:16:14.557Z,100170.06
2022-10-31T03:19:31.075Z,100164.75
2022-10-31T03:22:34.076Z,100167.31
2022-10-31T03:25:37.405Z,100159.84
2022-10-31T03:28:55.437Z,100163.59
2022-10-31T03:32:02.686Z,100154.09
2022-10-31T03:35:07.273Z,100160.94
2022-10-31T03:38:10.446Z,100154.03
2022-10-31T03:41:17.247Z,100158.47
2022-10-31T03:44:23.010Z,100162.75
2022-10-31T03:47:33.825Z,100158.63
2022-10-31T03:50:46.749Z,100154.88
2022-10-31T03:53:53.133Z,100164.25
2022-10-31T03:57:11.756Z,100148.78
2022-10-31T04:00:15.514Z,100157.66
2022-10-31T04:03:35.374Z,100149.31
2022-10-31T04:06:40.750Z,100160.06
2022-10-31T04:09:45.667Z,100161.06
2022-10-31T04:12:55.056Z,100151.56
2022-10-31T04:16:00.025Z,100154.72
2022-10-31T04:19:01.543Z,100162.13
2022-10-31T04:22:03.232Z,100152.00
2022-10-31T04:25:05.490Z,100154.91
2022-10-31T04:28:06.949Z,100158.56
2022-10-31T04:31:12.110Z,100150.00
2022-10-31T04:34:14.177Z,100159.56
2022-10-31T04:37:16.191Z,100149.88
2022-10-31T04:40:17.619Z,100150.34
2022-10-31T04:43:51.363Z,100158.06
2022-10-31T04:46:52.792Z,100149.34
2022-10-31T04:49:54.204Z,100144.28
2022-10-31T04:52:56.514Z,100143.59
2022-10-31T04:56:02.097Z,100147.03
2022-10-31T04:59:12.010Z,100144.97
2022-10-31T05:02:22.008Z,100145.31
2022-10-31T05:05:32.065Z,100143.81
2022-10-31T05:08:35.941Z,100136.94
2022-10-31T05:11:40.535Z,100143.00
2022-10-31T05:14:56.483Z,100141.13
2022-10-31T05:18:36.027Z,100149.34
2022-10-31T05:22:06.274Z,100134.25
2022-10-31T05:25:08.841Z,100139.97
2022-10-31T05:28:10.904Z,100138.16
2022-10-31T05:31:12.582Z,100134.63
2022-10-31T05:34:14.017Z,100128.19
2022-10-31T05:37:41.067Z,100129.72
2022-10-31T05:40:42.514Z,100129.63
2022-10-31T05:43:44.617Z,100133.53
2022-10-31T05:46:47.473Z,100132.56
2022-10-31T05:50:10.531Z,100144.09
2022-10-31T05:53:14.800Z,100135.91
2022-10-31T05:56:16.274Z,100144.03
2022-10-31T05:59:18.208Z,100137.16
2022-10-31T06:02:20.574Z,100145.09
2022-10-31T06:05:42.011Z,100134.88
2022-10-31T06:08:44.127Z,100140.50
2022-10-31T06:11:49.398Z,100138.59
2022-10-31T06:14:59.753Z,100133.28
2022-10-31T06:18:04.206Z,100133.97
2022-10-31T06:21:11.528Z,100134.78
2022-10-31T06:24:15.980Z,100140.44
2022-10-31T06:27:29.303Z,100133.91
2022-10-31T06:30:32.316Z,100134.38
2022-10-31T06:33:34.951Z,100131.28
2022-10-31T06:36:36.944Z,100129.06
2022-10-31T06:39:39.166Z,100128.16
2022-10-31T06:42:41.028Z,100131.13
2022-10-31T06:45:44.074Z,100129.25
2022-10-31T06:48:57.080Z,100135.72
2022-10-31T06:52:10.069Z,100132.00
2022-10-31T06:55:11.591Z,100136.34
2022-10-31T06:58:20.491Z,100136.81
2022-10-31T07:01:23.849Z,100139.97
2022-10-31T07:04:25.458Z,100139.16
2022-10-31T07:07:26.938Z,100147.38
2022-10-31T07:10:32.175Z,100145.75
2022-10-31T07:13:37.845Z,100149.84
2022-10-31T07:16:42.089Z,100151.72
2022-10-31T07:19:44.122Z,100141.53
2022-10-31T07:22:50.571Z,100146.66
2022-10-31T07:25:57.410Z,100151.44
2022-10-31T07:29:01.111Z,100146.50
2022-10-31T07:32:03.690Z,100144.31
2022-10-31T07:35:07.900Z,100150.00
2022-10-31T07:38:20.538Z,100147.91
2022-10-31T07:41:22.461Z,100161.91
2022-10-31T07:44:24.094Z,100157.66
2022-10-31T07:47:28.236Z,100159.78
2022-10-31T07:50:41.681Z,100157.53
2022-10-31T07:54:02.016Z,100157.84
2022-10-31T07:57:05.997Z,100154.59
2022-10-31T08:00:10.247Z,100163.50
2022-10-31T08:03:18.523Z,100155.19
2022-10-31T08:06:38.460Z,100155.00
2022-10-31T08:09:51.609Z,100165.88
2022-10-31T08:13:01.958Z,100166.22
2022-10-31T08:16:05.519Z,100173.13
2022-10-31T08:19:10.791Z,100163.91
2022-10-31T08:22:14.744Z,100174.13
2022-10-31T08:25:16.206Z,100169.81
2022-10-31T08:28:18.077Z,100167.69
2022-10-31T08:31:22.392Z,100170.47
2022-10-31T08:34:23.833Z,100168.81
2022-10-31T08:37:43.932Z,100158.44
2022-10-31T08:40:49.606Z,100163.56
2022-10-31T08:43:51.104Z,100152.66
2022-10-31T08:46:52.592Z,100146.41
2022-10-31T08:49:57.143Z,100151.19
2022-10-31T08:53:06.237Z,100151.34
2022-10-31T08:56:08.969Z,100142.09
2022-10-31T08:59:11.058Z,100156.44
2022-10-31T09:02:44.196Z,100144.41
2022-10-31T09:05:46.663Z,100148.03
2022-10-31T09:08:48.248Z,100142.72
2022-10-31T09:11:49.770Z,100136.94
2022-10-31T09:15:09.754Z,100123.78
2022-10-31T09:18:21.886Z,100131.66
2022-10-31T09:21:33.710Z,100123.34
2022-10-31T09:24:35.121Z,100125.31
2022-10-31T09:27:37.291Z,100120.97
2022-10-31T09:30:39.412Z,100117.13
2022-10-31T09:33:40.875Z,100115.41
2022-10-31T09:37:04.996Z,100110.44
2022-10-31T09:40:09.867Z,100102.84
2022-10-31T09:43:39.161Z,100103.50
2022-10-31T09:47:09.479Z,100090.09
2022-10-31T09:50:12.735Z,100090.19
2022-10-31T09:53:26.192Z,100094.72
2022-10-31T09:56:29.653Z,100090.81
2022-10-31T09:59:36.925Z,100093.94
2022-10-31T10:02:53.836Z,100089.34
2022-10-31T10:06:20.397Z,100093.16
2022-10-31T10:09:51.122Z,100089.53
2022-10-31T10:13:21.201Z,100092.63
2022-10-31T10:16:25.573Z,100098.78
2022-10-31T10:19:35.911Z,100101.47
2022-10-31T10:23:03.521Z,100089.34
2022-10-31T10:26:37.187Z,100082.38
2022-10-31T10:30:03.772Z,100080.69
2022-10-31T10:33:40.386Z,100078.00
2022-10-31T10:36:46.039Z,100081.75
2022-10-31T10:39:53.304Z,100071.91
2022-10-31T10:43:19.754Z,100065.13
2022-10-31T10:46:46.011Z,100073.94
2022-10-31T10:49:53.569Z,100082.00
2022-10-31T10:53:01.944Z,100081.19
2022-10-31T10:56:34.335Z,100090.91
2022-10-31T10:59:36.080Z,100087.00
2022-10-31T11:02:37.566Z,100068.59
2022-10-31T11:05:52.121Z,100067.59
2022-10-31T11:08:54.361Z,100059.13
2022-10-31T11:11:56.897Z,100060.88
2022-10-31T11:15:01.287Z,100051.59
2022-10-31T11:18:02.734Z,100062.88
2022-10-31T11:21:05.466Z,100066.50
2022-10-31T11:24:09.903Z,100069.22
2022-10-31T11:27:17.760Z,100061.38
2022-10-31T11:30:19.231Z,100053.53
2022-10-31T11:33:32.379Z,100042.13
2022-10-31T11:36:40.013Z,100040.38
2022-10-31T11:39:44.283Z,100028.88
2022-10-31T11:42:46.970Z,100009.22
2022-10-31T11:45:48.570Z,100004.41
2022-10-31T11:48:53.324Z,100003.97
2022-10-31T11:51:57.446Z,99982.03
2022-10-31T11:55:23.499Z,99976.69
2022-10-31T11:58:26.898Z,99980.34
2022-10-31T12:01:31.019Z,99988.63
2022-10-31T12:04:41.262Z,99972.97
2022-10-31T12:07:43.352Z,99965.13
2022-10-31T12:10:44.746Z,99957.72
2022-10-31T12:14:34.286Z,99941.41
2022-10-31T12:17:49.593Z,99927.09
2022-10-31T12:21:09.756Z,99926.38
2022-10-31T12:24:28.722Z,99934.19
2022-10-31T12:27:48.346Z,99943.09
2022-10-31T12:31:14.329Z,99945.09
2022-10-31T12:34:49.230Z,99938.38
2022-10-31T12:38:15.402Z,99932.28
2022-10-31T12:41:22.278Z,99940.19
2022-10-31T12:44:29.630Z,99924.06
2022-10-31T12:47:57.698Z,99920.50
2022-10-31T12:51:20.457Z,99924.75
2022-10-31T12:54:36.288Z,99923.75
2022-10-31T12:57:45.916Z,99909.34
2022-10-31T13:00:51.924Z,99909.34
2022-10-31T13:04:04.463Z,99905.72
2022-10-31T13:07:16.277Z,99906.56
2022-10-31T13:10:26.731Z,99905.88
2022-10-31T13:13:53.216Z,99888.69
2022-10-31T13:16:57.590Z,99879.31
2022-10-31T13:20:14.404Z,99880.50
2022-10-31T13:26:57.332Z,99895.25
2022-10-31T13:30:06.771Z,99876.84
2022-10-31T13:33:33.890Z,99887.50
2022-10-31T13:36:43.896Z,99885.75
2022-10-31T13:40:00.529Z,99884.91
2022-10-31T13:43:27.251Z,99872.31
2022-10-31T13:46:34.764Z,99869.09
2022-10-31T13:49:36.189Z,99848.00
2022-10-31T13:52:38.185Z,99849.53
2022-10-31T13:55:45.107Z,99841.78
2022-10-31T13:59:02.929Z,99824.72
2022-10-31T14:02:16.784Z,99833.03
2022-10-31T14:05:34.360Z,99832.59
2022-10-31T14:08:43.500Z,99830.75
2022-10-31T14:11:49.212Z,99833.53
2022-10-31T14:14:53.942Z,99809.28
2022-10-31T14:18:00.556Z,99793.59
2022-10-31T14:21:02.516Z,99785.66
2022-10-31T14:24:34.028Z,99781.91
2022-10-31T14:27:46.436Z,99774.84
2022-10-31T14:30:59.349Z,99763.03
2022-10-31T14:34:02.458Z,99738.06
2022-10-31T14:37:36.982Z,99734.69
2022-10-31T14:44:15.264Z,99698.94
2022-10-31T14:47:56.755Z,99672.53
2022-10-31T14:51:00.370Z,99661.75
2022-10-31T14:54:02.308Z,99677.06
2022-10-31T14:57:07.482Z,99707.78
2022-10-31T15:00:19.878Z,99729.59
2022-10-31T15:04:21.737Z,99720.47
2022-10-31T15:07:24.899Z,99715.97
2022-10-31T15:10:33.075Z,99715.22
2022-10-31T15:13:34.567Z,99716.13
2022-10-31T15:16:44.574Z,99714.41
2022-10-31T15:19:46.485Z,99732.53
2022-10-31T15:22:49.247Z,99727.44
2022-10-31T15:25:50.846Z,99734.94
2022-10-31T15:29:15.395Z,99739.78
2022-10-31T15:32:21.757Z,99731.41
2022-10-31T15:35:26.756Z,99722.34
2022-10-31T15:38:30.107Z,99711.91
2022-10-31T15:41:37.174Z,99702.28
2022-10-31T15:44:42.917Z,99711.47
2022-10-31T15:47:55.668Z,99715.19
2022-10-31T15:50:58.499Z,99710.84
2022-10-31T15:54:00.956Z,99705.69
2022-10-31T15:57:02.399Z,99700.59
2022-10-31T16:00:04.332Z,99704.47
2022-10-31T16:03:08.081Z,99711.50
2022-10-31T16:06:21.343Z,99718.03
2022-10-31T16:09:24.952Z,99729.13
2022-10-31T16:12:35.833Z,99729.00
2022-10-31T16:15:37.436Z,99723.38
2022-10-31T16:18:41.961Z,99717.91
2022-10-31T16:21:43.547Z,99728.00
2022-10-31T16:24:56.756Z,99723.81
2022-10-31T16:28:04.515Z,99715.25
2022-10-31T16:31:14.920Z,99725.47
2022-10-31T16:34:26.375Z,99730.94
2022-10-31T16:37:28.897Z,99732.84
2022-10-31T16:40:31.703Z,99726.84
2022-10-31T16:43:34.762Z,99722.94
2022-10-31T16:46:36.527Z,99727.09
2022-10-31T16:49:38.055Z,99732.94
2022-10-31T16:52:53.843Z,99714.38
2022-10-31T16:56:04.543Z,99716.13
2022-10-31T16:59:15.652Z,99731.38
2022-10-31T17:02:18.300Z,99744.56
2022-10-31T17:05:21.781Z,99754.09
2022-10-31T17:08:24.785Z,99762.94
2022-10-31T17:11:27.127Z,99778.03
2022-10-31T17:14:29.123Z,99779.13
2022-10-31T17:17:30.559Z,99768.56
2022-10-31T17:20:32.514Z,99783.88
2022-10-31T17:23:33.964Z,99769.03
2022-10-31T17:26:35.354Z,99785.31
2022-10-31T17:29:36.849Z,99781.19
2022-10-31T17:32:38.694Z,99792.31
2022-10-31T17:35:40.115Z,99809.53
2022-10-31T17:38:41.550Z,99790.75
2022-10-31T17:41:43.136Z,99794.78
2022-10-31T17:44:44.553Z,99782.13
2022-10-31T17:47:51.974Z,99776.09
2022-10-31T17:50:53.410Z,99788.22
2022-10-31T17:53:54.788Z,99793.06
2022-10-31T17:56:56.402Z,99799.19
2022-10-31T17:59:57.962Z,99788.28
2022-10-31T18:02:59.950Z,99795.22
2022-10-31T18:06:01.787Z,99808.19
2022-10-31T18:09:04.640Z,99785.88
2022-10-31T18:12:06.214Z,99792.91
2022-10-31T18:15:07.956Z,99789.00
2022-10-31T18:18:09.467Z,99779.06
2022-10-31T18:21:11.015Z,99770.19
2022-10-31T18:24:12.864Z,99783.00
2022-10-31T18:27:14.363Z,99779.66
2022-10-31T18:30:15.861Z,99782.59
2022-10-31T18:33:17.270Z,99794.63
2022-10-31T18:36:19.053Z,99787.09
2022-10-31T18:39:20.483Z,99782.78
2022-10-31T18:42:21.898Z,99776.75
2022-10-31T18:45:33.984Z,99772.56
2022-10-31T18:48:45.389Z,99769.81
2022-10-31T18:51:46.775Z,99790.09
2022-10-31T18:54:48.587Z,99791.06
2022-10-31T18:57:50.006Z,99799.03
2022-10-31T19:00:51.700Z,99796.38
2022-10-31T19:03:55.592Z,99785.00
2022-10-31T19:06:57.034Z,99809.38
2022-10-31T19:09:58.992Z,99802.56
2022-10-31T19:13:00.699Z,99805.06
2022-10-31T19:16:13.993Z,99802.66
2022-10-31T19:19:15.573Z,99802.72
2022-10-31T19:22:17.039Z,99791.06
2022-10-31T19:25:18.543Z,99791.88
2022-10-31T19:28:19.972Z,99784.25
2022-10-31T19:31:21.529Z,99795.69
2022-10-31T19:34:22.924Z,99799.47
2022-10-31T19:37:24.465Z,99797.69
2022-10-31T19:40:25.846Z,99799.38
2022-10-31T19:43:28.089Z,99787.47
2022-10-31T19:49:51.074Z,99785.50
2022-10-31T19:52:52.484Z,99786.13
2022-10-31T19:55:53.908Z,99780.44
2022-10-31T19:58:57.128Z,99780.22
2022-10-31T20:01:58.758Z,99778.66
2022-10-31T20:05:01.770Z,99774.47
2022-10-31T20:08:03.487Z,99764.50
2022-10-31T20:11:05.085Z,99769.38
2022-10-31T20:14:08.189Z,99772.44
2022-10-31T20:17:09.855Z,99774.91
2022-10-31T20:20:11.478Z,99772.28
2022-10-31T20:23:13.010Z,99775.00
2022-10-31T20:26:17.715Z,99778.81
2022-10-31T20:29:19.559Z,99771.41
2022-10-31T20:32:21.347Z,99752.97
2022-10-31T20:35:22.907Z,99756.59
2022-10-31T20:38:24.350Z,99751.72
2022-10-31T20:41:25.889Z,99747.53
2022-10-31T20:44:27.664Z,99739.88
2022-10-31T20:47:29.156Z,99749.44
2022-10-31T20:50:30.574Z,99749.78
2022-10-31T20:53:32.643Z,99742.88
2022-10-31T20:56:34.092Z,99728.03
2022-10-31T20:59:35.792Z,99731.63
2022-10-31T21:02:43.054Z,99727.00
2022-10-31T21:05:56.515Z,99724.53
2022-10-31T21:08:58.330Z,99717.69
2022-10-31T21:11:59.712Z,99732.50
2022-10-31T21:15:01.117Z,99729.00
2022-10-31T21:18:02.591Z,99739.22
2022-10-31T21:21:19.930Z,99731.31
2022-10-31T21:24:21.824Z,99740.53
2022-10-31T21:27:23.863Z,99744.91
2022-10-31T21:30:25.275Z,99738.59
2022-10-31T21:33:26.822Z,99743.34
2022-10-31T21:36:28.390Z,99739.28
2022-10-31T21:39:29.776Z,99722.88
2022-10-31T21:42:33.039Z,99717.72
2022-10-31T21:45:34.595Z,99719.53
2022-10-31T21:48:42.021Z,99726.19
2022-10-31T21:51:44.130Z,99730.59
2022-10-31T21:54:45.649Z,99727.31
2022-10-31T21:57:47.195Z,99715.81
2022-10-31T22:00:48.743Z,99722.44
2022-10-31T22:03:50.224Z,99711.84
2022-10-31T22:06:51.734Z,99704.22
2022-10-31T22:09:53.257Z,99714.06
2022-10-31T22:12:54.645Z,99725.88
2022-10-31T22:16:00.391Z,99709.47
2022-10-31T22:19:05.681Z,99724.81
2022-10-31T22:22:07.412Z,99731.09
2022-10-31T22:25:09.287Z,99728.19
2022-10-31T22:28:10.800Z,99730.66
2022-10-31T22:31:16.072Z,99728.03
2022-10-31T22:34:18.799Z,99714.78
2022-10-31T22:37:20.278Z,99721.50
2022-10-31T22:40:21.708Z,99725.06
2022-10-31T22:43:23.150Z,99719.47
2022-10-31T22:46:27.202Z,99725.00
2022-10-31T22:49:29.884Z,99731.16
2022-10-31T22:52:31.597Z,99727.72
2022-10-31T22:55:34.862Z,99720.69
2022-10-31T22:58:36.623Z,99713.56
2022-10-31T23:01:38.315Z,99716.69
2022-10-31T23:04:40.070Z,99713.56
2022-10-31T23:07:41.514Z,99710.22
2022-10-31T23:10:44.188Z,99707.19
2022-10-31T23:14:06.175Z,99711.56
2022-10-31T23:17:07.668Z,99707.56
2022-10-31T23:20:09.422Z,99707.56
2022-10-31T23:23:10.830Z,99711.75
2022-10-31T23:26:31.125Z,99710.13
2022-10-31T23:29:34.543Z,99704.13
2022-10-31T23:32:37.773Z,99702.28
2022-10-31T23:35:39.278Z,99702.94
2022-10-31T23:38:40.722Z,99699.75
2022-10-31T23:41:42.173Z,99694.94
2022-10-31T23:44:43.819Z,99697.03
2022-10-31T23:47:45.220Z,99692.09
2022-10-31T23:50:47.714Z,99690.94
2022-10-31T23:53:49.132Z,99695.19
2022-10-31T23:56:50.780Z,99700.81
2022-10-31T23:59:52.162Z,99699.09
